Time;durP1;ratioP1;P1;durP2;ratioP2;P2;SDS_P1;SDS_P2;PMS_P1;PMS_P2;Temp;Humidity;BMP_temperature;BMP_pressure;BME280_temperature;BME280_humidity;BME280_pressure;Samples;Min_cycle;Max_cycle;Signal;HPM_P1;HPM_P2
2022/06/22 00:00:15;;;;;;;5.43;1.58;;;;;;;12.16;80.97;100698.44;6094910;28;20037;-67
2022/06/22 00:03:11;;;;;;;3.13;1.83;;;;;;;12.09;81.42;100702.72;6094953;28;20058;-67
2022/06/22 00:06:06;;;;;;;3.40;1.95;;;;;;;11.94;81.97;100690.97;6097037;28;20052;-67
2022/06/22 00:09:03;;;;;;;2.90;1.88;;;;;;;11.89;82.14;100687.97;6095817;28;20499;-67
2022/06/22 00:11:59;;;;;;;3.90;1.65;;;;;;;11.94;82.57;100685.66;6095106;28;20495;-67
2022/06/22 00:14:57;;;;;;;6.32;1.65;;;;;;;12.13;81.64;100697.91;6097030;28;20139;-67
2022/06/22 00:17:52;;;;;;;5.40;1.73;;;;;;;11.98;82.14;100694.19;6098461;28;20047;-67
2022/06/22 00:20:50;;;;;;;3.40;1.73;;;;;;;11.82;82.69;100687.72;6100306;28;20028;-67
2022/06/22 00:23:48;;;;;;;4.07;2.13;;;;;;;11.58;83.40;100684.84;6100238;28;20043;-67
2022/06/22 00:26:47;;;;;;;4.25;2.00;;;;;;;11.39;84.35;100686.84;6101049;28;20028;-67
2022/06/22 00:29:44;;;;;;;4.78;2.13;;;;;;;11.57;84.83;100693.81;6100984;28;20099;-67
2022/06/22 00:32:59;;;;;;;3.60;1.90;;;;;;;11.91;83.06;100686.81;6097897;28;20033;-67
2022/06/22 00:36:00;;;;;;;4.93;1.75;;;;;;;11.57;83.33;100706.25;6100853;28;20377;-67
2022/06/22 00:38:55;;;;;;;4.22;1.77;;;;;;;11.24;84.67;100703.31;6101170;28;20033;-67
2022/06/22 00:42:15;;;;;;;4.10;1.63;;;;;;;11.07;85.93;100721.84;6092606;28;20090;-67
2022/06/22 00:45:20;;;;;;;4.05;1.92;;;;;;;10.79;87.03;100706.94;6101031;28;20546;-67
2022/06/22 00:48:22;;;;;;;4.72;1.95;;;;;;;10.65;87.84;100709.06;6095440;28;20155;-67
2022/06/22 00:51:27;;;;;;;4.78;1.83;;;;;;;10.58;88.73;100713.31;6098391;28;20067;-67
2022/06/22 00:54:26;;;;;;;4.10;2.30;;;;;;;11.07;88.68;100708.56;6099434;28;20029;-67
2022/06/22 00:57:26;;;;;;;3.78;2.00;;;;;;;11.69;86.88;100708.56;6100328;28;20412;-67
2022/06/22 01:00:23;;;;;;;5.03;2.13;;;;;;;11.39;85.24;100711.56;6100056;28;20103;-67
2022/06/22 01:03:22;;;;;;;3.50;2.00;;;;;;;10.88;87.04;100700.72;6098980;28;20043;-67
2022/06/22 01:06:26;;;;;;;4.03;2.20;;;;;;;10.60;87.93;100707.84;6098816;28;20064;-67
2022/06/22 01:09:37;;;;;;;3.60;2.08;;;;;;;10.67;88.78;100704.47;6099304;28;20491;-67
2022/06/22 01:13:08;;;;;;;3.72;2.10;;;;;;;11.20;88.06;100712.53;6097530;28;20037;-67
2022/06/22 01:16:27;;;;;;;4.68;2.30;;;;;;;11.16;85.59;100710.34;6099811;28;20029;-67
2022/06/22 01:19:37;;;;;;;4.47;2.28;;;;;;;10.87;86.09;100704.38;6091087;28;20091;-67
2022/06/22 01:22:57;;;;;;;5.18;2.65;;;;;;;11.14;87.49;100702.50;6098753;28;20461;-67
2022/06/22 01:25:55;;;;;;;4.75;2.78;;;;;;;11.38;86.34;100707.25;6098103;28;20158;-67
2022/06/22 01:28:55;;;;;;;6.13;3.05;;;;;;;11.60;84.83;100706.81;6099495;28;20033;-67
2022/06/22 01:32:02;;;;;;;6.13;2.88;;;;;;;11.59;84.13;100706.94;6098993;28;20032;-67
2022/06/22 01:34:59;;;;;;;;;;;;;;;11.74;83.75;100698.28;6099129;28;20386;-67
2022/06/22 01:37:54;;;;;;;9.38;2.85;;;;;;;11.42;83.75;100700.63;6097742;28;19920;-67
2022/06/22 01:40:56;;;;;;;5.03;3.13;;;;;;;11.10;84.84;100705.63;6098614;28;20033;-67
2022/06/22 01:44:12;;;;;;;4.75;2.50;;;;;;;10.69;86.58;100688.41;6099909;28;20299;-67
2022/06/22 01:47:13;;;;;;;5.18;3.05;;;;;;;10.56;87.32;100682.63;6098015;28;20048;-67
2022/06/22 01:50:18;;;;;;;4.85;2.88;;;;;;;10.30;88.86;100674.47;6097237;28;20040;-67
2022/06/22 01:53:40;;;;;;;6.05;3.22;;;;;;;10.43;89.16;100677.66;6097695;28;20045;-67
2022/06/22 01:56:42;;;;;;;9.68;3.47;;;;;;;10.74;89.03;100679.03;6098039;28;20037;-67
2022/06/22 01:59:49;;;;;;;5.43;3.03;;;;;;;10.46;88.88;100663.28;6099013;28;20037;-67
2022/06/22 02:02:57;;;;;;;5.40;2.95;;;;;;;10.20;89.12;100672.84;6096915;28;20037;-67
2022/06/22 02:06:00;;;;;;;6.32;3.55;;;;;;;10.37;90.29;100680.88;6097016;28;20036;-67
2022/06/22 02:09:02;;;;;;;8.55;3.67;;;;;;;10.45;89.51;100678.34;6098841;28;20120;-67
2022/06/22 02:15:42;;;;;;;7.93;3.20;;;;;;;10.71;89.69;100684.63;6097976;28;20029;-67
2022/06/22 02:18:51;;;;;;;6.78;4.03;;;;;;;10.52;89.38;100674.09;6097428;28;20028;-67
2022/06/22 02:21:47;;;;;;;8.07;3.90;;;;;;;11.03;90.65;100667.41;6097662;28;20479;-67
2022/06/22 02:24:46;;;;;;;6.80;3.47;;;;;;;11.37;88.30;100663.09;6098279;28;20037;-67
2022/06/22 02:27:41;;;;;;;6.75;3.97;;;;;;;11.35;87.29;100667.72;6098391;28;20536;-67
2022/06/22 02:30:37;;;;;;;5.60;3.20;;;;;;;10.88;87.67;100664.44;6096426;28;20043;-67
2022/06/22 02:33:34;;;;;;;6.80;3.70;;;;;;;10.41;88.74;100654.94;6097236;28;20785;-67
2022/06/22 02:36:32;;;;;;;5.63;3.15;;;;;;;10.22;89.61;100663.75;6096420;28;20040;-67
2022/06/22 02:39:30;;;;;;;8.65;3.60;;;;;;;10.00;90.18;100656.16;6097349;28;20032;-67
2022/06/22 02:45:41;;;;;;;6.93;4.30;;;;;;;10.08;92.54;100653.63;6096995;28;20040;-67
2022/06/22 02:48:37;;;;;;;8.85;4.18;;;;;;;9.89;92.16;100648.38;6098123;28;20461;-67
2022/06/22 02:51:42;;;;;;;9.77;3.92;;;;;;;9.70;92.75;100632.53;6095884;28;20037;-67
2022/06/22 02:54:48;;;;;;;6.63;4.10;;;;;;;9.57;93.34;100633.66;6098120;28;20041;-67
2022/06/22 02:57:51;;;;;;;8.38;3.58;;;;;;;9.96;93.61;100639.72;6095423;28;20039;-67
2022/06/22 03:00:46;;;;;;;8.50;3.50;;;;;;;10.00;92.89;100629.66;6093219;28;20037;-67
2022/06/22 03:03:45;;;;;;;8.47;4.00;;;;;;;9.92;91.81;100621.59;6108569;28;20048;-67
2022/06/22 03:06:45;;;;;;;6.95;3.65;;;;;;;10.06;92.32;100629.06;6097731;28;20033;-67
2022/06/22 03:09:40;;;;;;;5.45;3.47;;;;;;;10.01;91.16;100616.25;6092003;28;20033;-67
2022/06/22 03:12:37;;;;;;;5.90;3.75;;;;;;;9.85;91.48;100620.50;6094158;28;20040;-67
2022/06/22 03:15:35;;;;;;;6.03;3.40;;;;;;;9.58;91.77;100618.59;6096589;28;20576;-67
2022/06/22 03:18:34;;;;;;;7.15;3.53;;;;;;;9.35;92.55;100636.59;6096181;28;20037;-67
2022/06/22 03:21:30;;;;;;;6.65;3.42;;;;;;;9.17;93.49;100622.41;6096848;28;20063;-67
2022/06/22 03:24:39;;;;;;;7.50;3.67;;;;;;;9.16;94.36;100639.25;6094634;28;20093;-67
2022/06/22 03:27:38;;;;;;;8.68;3.97;;;;;;;9.22;95.33;100632.56;6095394;28;20032;-66
2022/06/22 03:30:44;;;;;;;6.53;3.75;;;;;;;9.28;96.06;100638.13;6100020;28;20025;-67
2022/06/22 03:33:47;;;;;;;8.02;4.10;;;;;;;9.52;96.18;100643.00;6097410;28;20043;-67
2022/06/22 03:36:49;;;;;;;12.18;4.22;;;;;;;9.72;96.66;100638.50;6089205;28;20056;-67
2022/06/22 03:39:48;;;;;;;6.38;3.40;;;;;;;9.92;95.12;100643.59;6096121;28;20487;-67
2022/06/22 03:42:51;;;;;;;5.70;3.80;;;;;;;9.61;94.42;100665.13;6096982;28;20060;-67
2022/06/22 03:45:51;;;;;;;8.43;4.10;;;;;;;9.45;94.93;100653.31;6095960;28;20037;-66
2022/06/22 03:48:58;;;;;;;9.82;4.55;;;;;;;9.55;95.61;100661.25;6094641;28;20029;-66
2022/06/22 03:52:00;;;;;;;8.88;4.20;;;;;;;9.85;95.48;100665.53;6095265;28;20109;-67
2022/06/22 03:55:10;;;;;;;9.95;4.63;;;;;;;10.05;94.66;100675.09;6108244;28;20033;-67
2022/06/22 03:58:07;;;;;;;12.70;4.38;;;;;;;10.13;94.48;100683.19;6100980;28;20029;-67
2022/06/22 04:01:03;;;;;;;9.98;4.32;;;;;;;10.05;95.01;100691.00;6099909;28;20033;-67
2022/06/22 04:03:59;;;;;;;7.88;4.45;;;;;;;9.94;94.98;100672.63;6101822;28;20056;-66
2022/06/22 04:06:54;;;;;;;9.00;4.47;;;;;;;10.15;95.50;100667.97;6098483;28;20389;-67
2022/06/22 04:09:52;;;;;;;8.48;4.90;;;;;;;10.18;95.92;100654.44;6101795;28;20036;-66
2022/06/22 04:12:48;;;;;;;8.80;4.75;;;;;;;10.46;96.25;100663.28;6099387;28;20076;-66
2022/06/22 04:15:56;;;;;;;11.02;4.82;;;;;;;10.91;95.29;100673.91;6100746;28;20112;-67
2022/06/22 04:18:56;;;;;;;8.55;4.28;;;;;;;10.89;94.59;100681.19;6100311;28;20381;-66
2022/06/22 04:21:57;;;;;;;7.40;4.30;;;;;;;10.94;94.25;100673.59;6100053;28;20403;-67
2022/06/22 04:24:56;;;;;;;6.50;4.65;;;;;;;11.18;93.98;100679.16;6099875;28;20400;-67
2022/06/22 04:27:52;;;;;;;8.23;4.47;;;;;;;11.78;92.58;100665.13;6100508;28;20033;-67
2022/06/22 04:30:49;;;;;;;5.28;3.40;;;;;;;12.14;89.59;100655.25;6099416;28;20503;-67
2022/06/22 04:33:48;;;;;;;5.40;3.80;;;;;;;12.94;86.27;100675.19;6099615;28;20044;-67
2022/06/22 04:36:48;;;;;;;8.57;3.65;;;;;;;13.73;81.96;100681.66;6100730;28;20056;-67
2022/06/22 04:39:44;;;;;;;;;;;;;;;14.46;77.84;100672.75;6089677;28;20431;-67
2022/06/22 04:42:40;;;;;;;5.03;3.40;;;;;;;14.59;76.74;100673.03;6097419;28;19966;-66
2022/06/22 04:45:38;;;;;;;12.18;4.07;;;;;;;15.63;73.87;100660.03;6101047;28;20075;-67
2022/06/22 04:48:39;;;;;;;7.25;4.10;;;;;;;15.82;72.12;100659.53;6102218;28;20056;-67
2022/06/22 04:51:37;;;;;;;7.80;3.78;;;;;;;16.10;69.59;100647.22;6098703;28;20040;-67
2022/06/22 04:54:35;;;;;;;6.70;3.63;;;;;;;16.87;67.67;100645.84;6100895;28;20108;-67
2022/06/22 04:57:34;;;;;;;7.07;3.75;;;;;;;17.06;66.09;100650.59;6100527;28;20052;-67
2022/06/22 05:00:34;;;;;;;6.18;3.70;;;;;;;16.93;66.61;100650.41;6102577;28;20112;-67
2022/06/22 05:03:29;;;;;;;5.63;3.75;;;;;;;16.16;68.52;100651.03;6098764;28;20037;-65
2022/06/22 05:06:32;;;;;;;8.65;4.20;;;;;;;15.44;72.09;100662.16;6098767;28;20067;-65
2022/06/22 05:09:40;;;;;;;8.77;4.40;;;;;;;15.33;72.77;100672.44;6098876;28;20037;-65
2022/06/22 05:12:55;;;;;;;7.63;4.40;;;;;;;15.27;73.33;100692.66;6098679;28;20472;-65
2022/06/22 05:15:54;;;;;;;8.63;4.43;;;;;;;15.34;73.98;100690.13;6099686;28;20119;-65
2022/06/22 05:18:50;;;;;;;8.82;3.90;;;;;;;15.44;73.12;100677.38;6098950;28;20036;-65
2022/06/22 05:21:45;;;;;;;5.32;3.85;;;;;;;16.11;71.15;100686.38;6099450;28;20032;-66
2022/06/22 05:24:44;;;;;;;8.55;3.72;;;;;;;16.71;69.56;100682.72;6099036;28;20029;-66
2022/06/22 05:27:51;;;;;;;9.80;3.75;;;;;;;17.21;66.49;100691.56;6098365;28;20159;-66
2022/06/22 05:30:53;;;;;;;6.70;3.97;;;;;;;17.33;67.20;100681.19;6096772;28;20033;-66
2022/06/22 05:33:52;;;;;;;6.72;3.97;;;;;;;17.88;66.63;100698.44;6099864;28;20025;-66
2022/06/22 05:36:50;;;;;;;5.28;3.60;;;;;;;18.21;62.69;100699.50;6099699;28;20473;-66
2022/06/22 05:39:46;;;;;;;8.00;3.92;;;;;;;17.96;65.17;100706.34;6098698;28;20039;-66
2022/06/22 05:42:41;;;;;;;7.72;4.18;;;;;;;18.34;63.86;100711.16;6098895;28;20041;-66
2022/06/22 05:45:42;;;;;;;7.27;4.20;;;;;;;18.17;64.23;100703.63;6091186;28;20073;-66
2022/06/22 05:48:43;;;;;;;5.80;3.75;;;;;;;17.81;66.17;100704.56;6092631;28;20025;-66
2022/06/22 05:51:55;;;;;;;6.53;4.18;;;;;;;17.58;67.53;100701.25;6098769;28;20032;-65
2022/06/22 05:54:55;;;;;;;8.55;4.13;;;;;;;18.60;62.99;100715.91;6098313;28;20044;-65
2022/06/22 05:58:05;;;;;;;8.38;3.92;;;;;;;18.71;62.19;100709.97;6084250;28;20043;-65
2022/06/22 06:01:02;;;;;;;6.68;4.18;;;;;;;18.93;63.10;100716.91;6097484;28;20128;-66
2022/06/22 06:04:05;;;;;;;6.15;3.80;;;;;;;19.98;59.79;100719.03;6098299;28;20103;-66
2022/06/22 06:07:07;;;;;;;7.38;4.43;;;;;;;19.28;60.22;100719.53;6097947;28;20037;-66
2022/06/22 06:10:04;;;;;;;6.63;4.18;;;;;;;19.97;59.98;100715.53;6093573;28;20401;-66
2022/06/22 06:13:01;;;;;;;7.95;4.10;;;;;;;20.29;59.35;100707.66;6095017;28;20048;-66
2022/06/22 06:15:59;;;;;;;7.47;4.45;;;;;;;20.15;58.46;100707.66;6094710;28;20556;-66
2022/06/22 06:19:02;;;;;;;7.13;4.15;;;;;;;20.54;58.45;100711.38;6097905;28;20043;-66
2022/06/22 06:21:59;;;;;;;40.50;23.63;;;;;;;20.75;56.21;100708.41;6096452;28;20170;-66
2022/06/22 06:28:20;;;;;;;7.47;3.60;;;;;;;21.04;56.91;100720.50;6097393;28;20032;-65
2022/06/22 06:31:21;;;;;;;6.72;3.95;;;;;;;20.89;57.45;100726.19;6095675;28;20036;-66
2022/06/22 06:34:19;;;;;;;5.45;3.75;;;;;;;20.91;57.19;100724.09;6095990;28;20062;-66
2022/06/22 06:37:20;;;;;;;8.85;3.70;;;;;;;21.20;56.12;100726.28;6096167;28;20036;-65
2022/06/22 06:40:22;;;;;;;7.55;4.22;;;;;;;20.61;56.59;100728.34;6094893;28;20408;-66
2022/06/22 06:43:39;;;;;;;9.88;4.75;;;;;;;20.82;56.75;100727.25;6087005;28;20029;-66
2022/06/22 06:46:39;;;;;;;8.15;4.60;;;;;;;20.68;57.58;100719.19;6097078;28;20029;-66
2022/06/22 06:50:14;;;;;;;8.13;4.40;;;;;;;19.79;61.36;100712.63;6098217;28;20033;-65
2022/06/22 06:53:28;;;;;;;7.20;4.15;;;;;;;20.57;59.83;100716.34;6049382;28;20512;-66
2022/06/22 06:56:48;;;;;;;8.10;4.32;;;;;;;20.55;59.11;100713.00;6097223;28;20050;-66
2022/06/22 06:59:46;;;;;;;6.88;4.22;;;;;;;21.99;54.82;100696.09;6097925;28;20392;-66
2022/06/22 07:02:43;;;;;;;6.70;3.90;;;;;;;21.40;57.47;100698.38;6097600;28;20032;-66
2022/06/22 07:05:38;;;;;;;5.93;3.85;;;;;;;21.04;56.17;100686.28;6096748;28;20366;-66
2022/06/22 07:08:38;;;;;;;9.90;3.77;;;;;;;21.03;57.87;100690.03;6097956;28;20083;-66
2022/06/22 07:11:48;;;;;;;6.50;3.97;;;;;;;20.62;58.54;100689.56;6095803;28;20025;-66
2022/06/22 07:14:44;;;;;;;7.05;3.60;;;;;;;21.09;58.76;100697.28;6092615;28;20033;-66
2022/06/22 07:17:40;;;;;;;4.28;3.00;;;;;;;21.11;58.32;100689.84;6092863;28;20040;-65
2022/06/22 07:20:39;;;;;;;5.05;3.22;;;;;;;21.79;54.07;100690.03;6092644;28;20022;-65
2022/06/22 07:24:03;;;;;;;6.60;2.78;;;;;;;21.46;52.45;100692.13;6095837;28;20059;-66
2022/06/22 07:27:05;;;;;;;8.68;3.15;;;;;;;21.22;52.62;100689.16;6096412;28;20040;-65
2022/06/22 07:30:11;;;;;;;4.28;2.38;;;;;;;21.18;52.91;100690.63;6095292;28;20090;-65
2022/06/22 07:33:30;;;;;;;;;;;;;;;21.44;52.89;100696.91;6094812;28;20037;-66
2022/06/22 07:36:28;;;;;;;7.82;3.20;;;;;;;20.62;55.09;100694.97;6096427;28;19919;-65
2022/06/22 07:39:36;;;;;;;12.15;2.95;;;;;;;21.53;53.46;100682.09;6087433;28;20030;-66
2022/06/22 07:42:32;;;;;;;7.20;2.70;;;;;;;21.64;51.65;100681.38;6093195;28;20495;-66
2022/06/22 07:45:28;;;;;;;7.18;2.53;;;;;;;21.72;51.83;100683.81;6096130;28;20060;-66
2022/06/22 07:48:24;;;;;;;8.05;2.58;;;;;;;22.52;50.26;100682.91;6107722;28;20082;-66
2022/06/22 07:51:24;;;;;;;3.38;2.05;;;;;;;22.25;49.09;100668.84;6094524;28;20071;-66
2022/06/22 07:54:24;;;;;;;7.38;2.50;;;;;;;21.63;51.35;100680.59;6092499;28;20071;-66
2022/06/22 07:57:47;;;;;;;7.10;2.42;;;;;;;22.46;49.26;100687.34;6095217;28;20028;-66
2022/06/22 08:00:44;;;;;;;4.95;2.20;;;;;;;23.02;47.24;100676.28;6083355;28;20037;-66
2022/06/22 08:03:43;;;;;;;8.80;2.75;;;;;;;22.30;49.12;100676.28;6097194;28;20036;-66
2022/06/22 08:07:10;;;;;;;4.47;1.88;;;;;;;22.85;49.04;100690.69;6095394;28;20041;-66
2022/06/22 08:10:14;;;;;;;3.97;2.45;;;;;;;22.67;51.06;100677.97;6079841;28;20056;-66
2022/06/22 08:13:16;;;;;;;4.28;2.47;;;;;;;22.97;49.60;100678.03;6096066;28;20033;-66
2022/06/22 08:16:16;;;;;;;4.13;2.25;;;;;;;22.49;49.66;100691.47;6095786;28;20033;-66
2022/06/22 08:19:12;;;;;;;5.60;2.28;;;;;;;22.84;49.47;100681.75;6096886;28;20108;-66
2022/06/22 08:22:10;;;;;;;6.60;2.25;;;;;;;22.66;48.94;100689.88;6095302;28;20044;-66
2022/06/22 08:25:06;;;;;;;7.32;2.20;;;;;;;22.88;48.68;100690.22;6095663;28;20060;-66
2022/06/22 08:28:03;;;;;;;6.22;1.90;;;;;;;23.61;48.98;100675.50;6096623;28;20433;-66
2022/06/22 08:30:58;;;;;;;6.72;2.20;;;;;;;23.41;46.61;100674.97;6096334;28;20033;-66
2022/06/22 08:34:07;;;;;;;7.63;2.35;;;;;;;22.96;47.35;100681.81;6096664;28;20068;-66
2022/06/22 08:37:07;;;;;;;5.68;2.40;;;;;;;22.34;49.31;100678.31;6094946;28;20040;-66
2022/06/22 08:40:31;;;;;;;4.22;2.05;;;;;;;22.45;48.19;100684.84;6100300;28;20052;-66
2022/06/22 08:43:50;;;;;;;6.38;2.45;;;;;;;23.41;46.45;100685.78;6099943;28;20028;-66
2022/06/22 08:46:58;;;;;;;3.65;2.55;;;;;;;23.81;47.40;100686.00;6092382;28;20033;-66
2022/06/22 08:50:19;;;;;;;5.70;2.00;;;;;;;24.25;44.56;100677.34;6100117;28;20496;-66
2022/06/22 08:53:24;;;;;;;5.65;2.30;;;;;;;24.06;45.06;100683.06;6099605;28;20416;-66
2022/06/22 08:56:59;;;;;;;5.05;1.80;;;;;;;23.78;45.04;100680.25;6100793;28;20064;-66
2022/06/22 09:00:04;;;;;;;4.57;1.95;;;;;;;23.92;43.54;100677.06;6100481;28;20369;-66
2022/06/22 09:03:16;;;;;;;5.85;2.00;;;;;;;24.13;43.77;100678.41;6112391;28;20104;-66
2022/06/22 09:06:51;;;;;;;5.47;2.25;;;;;;;24.10;42.54;100676.19;6092903;28;20124;-66
2022/06/22 09:10:05;;;;;;;7.68;2.22;;;;;;;23.98;42.11;100678.00;6099061;28;20025;-66
2022/06/22 09:13:20;;;;;;;3.95;2.05;;;;;;;24.32;41.50;100669.09;6099976;28;20032;-66
2022/06/22 09:16:40;;;;;;;5.28;1.80;;;;;;;24.22;40.92;100687.81;6100267;28;20395;-66
2022/06/22 09:19:54;;;;;;;5.03;1.83;;;;;;;24.57;43.16;100676.97;6098834;28;20036;-66
2022/06/22 09:22:57;;;;;;;3.75;2.05;;;;;;;24.56;44.05;100683.44;6099258;28;20037;-66
2022/06/22 09:26:16;;;;;;;4.63;2.22;;;;;;;23.94;41.02;100669.53;6099135;28;20119;-66
2022/06/22 09:29:31;;;;;;;7.18;1.70;;;;;;;24.06;41.45;100666.81;6093038;28;20041;-66
2022/06/22 09:32:40;;;;;;;3.55;1.83;;;;;;;24.37;40.49;100671.94;6098113;28;20029;-66
2022/06/22 09:35:48;;;;;;;4.40;1.83;;;;;;;24.06;42.16;100664.94;6098455;28;20037;-66
2022/06/22 09:39:08;;;;;;;4.22;2.00;;;;;;;23.96;43.67;100666.59;6098690;28;20044;-66
2022/06/22 09:42:25;;;;;;;3.63;1.90;;;;;;;24.59;41.61;100658.56;6098859;28;20469;-66
2022/06/22 09:45:52;;;;;;;5.10;2.28;;;;;;;24.75;40.67;100672.22;6098646;28;20029;-66
2022/06/22 09:49:05;;;;;;;3.05;1.73;;;;;;;24.83;41.41;100680.00;6093972;28;20123;-66
2022/06/22 09:52:04;;;;;;;5.90;1.80;;;;;;;25.11;39.20;100687.34;6093287;28;20033;-66
2022/06/22 09:58:57;;;;;;;4.60;1.80;;;;;;;24.82;36.20;100688.38;6099070;28;20037;-66
2022/06/22 10:02:13;;;;;;;4.35;1.83;;;;;;;25.20;37.75;100679.63;6094463;28;20047;-66
2022/06/22 10:05:39;;;;;;;3.80;1.80;;;;;;;25.41;37.00;100684.41;6097376;28;20041;-66
2022/06/22 10:08:56;;;;;;;3.15;1.77;;;;;;;25.87;36.63;100680.59;6098730;28;20025;-66
2022/06/22 10:12:06;;;;;;;4.43;1.70;;;;;;;25.89;37.77;100670.31;6096812;28;20032;-66
2022/06/22 10:15:14;;;;;;;3.22;1.55;;;;;;;25.78;35.23;100679.34;6096800;28;20044;-66
2022/06/22 10:18:41;;;;;;;3.90;1.38;;;;;;;26.10;36.68;100685.84;6098735;28;20125;-66
2022/06/22 10:21:58;;;;;;;3.55;1.73;;;;;;;26.21;37.00;100678.72;6096621;28;20392;-66
2022/06/22 10:25:08;;;;;;;3.55;1.73;;;;;;;26.00;35.60;100683.81;6092339;28;20033;-66
2022/06/22 10:28:18;;;;;;;4.85;1.98;;;;;;;25.99;35.81;100690.31;6095463;28;20037;-66
2022/06/22 10:31:19;;;;;;;5.03;1.90;;;;;;;25.75;35.61;100680.69;6096325;28;20120;-66
2022/06/22 10:34:20;;;;;;;3.30;1.70;;;;;;;25.26;35.65;100681.38;6096552;28;20048;-66
2022/06/22 10:37:15;;;;;;;3.15;1.52;;;;;;;24.64;37.27;100683.91;6097293;28;20033;-66
2022/06/22 10:47:38;;;;;;;3.45;1.50;;;;;;;24.45;37.35;100673.44;6094663;28;20041;-66
2022/06/22 10:50:42;;;;;;;4.82;1.48;;;;;;;24.36;38.50;100672.97;6095715;28;20123;-66
2022/06/22 10:54:11;;;;;;;2.38;1.58;;;;;;;24.24;38.44;100672.19;6096715;28;20032;-67
2022/06/22 10:57:23;;;;;;;4.95;1.83;;;;;;;24.14;38.90;100661.91;6083006;28;20037;-66
2022/06/22 11:00:50;;;;;;;3.58;1.73;;;;;;;24.29;38.39;100666.88;6094829;28;20044;-67
2022/06/22 11:04:27;;;;;;;2.80;1.70;;;;;;;24.28;36.63;100676.03;6095205;28;20029;-66
2022/06/22 11:07:47;;;;;;;3.15;1.48;;;;;;;24.65;37.01;100666.56;6089813;28;20094;-66
2022/06/22 11:11:10;;;;;;;3.15;1.42;;;;;;;24.96;34.93;100661.78;6090193;28;20106;-66
2022/06/22 11:14:36;;;;;;;29.73;17.30;;;;;;;25.30;33.68;100658.91;6095552;28;20056;-67
2022/06/22 11:17:59;;;;;;;2.55;1.45;;;;;;;25.20;31.42;100669.59;6089699;28;20037;-68
2022/06/22 11:21:00;;;;;;;2.50;1.50;;;;;;;25.09;32.90;100666.94;6089734;28;20043;-68
2022/06/22 11:24:18;;;;;;;3.05;1.58;;;;;;;25.45;34.60;100671.97;6096253;28;20063;-68
2022/06/22 11:30:52;;;;;;;3.88;1.60;;;;;;;25.81;32.81;100668.00;6094202;28;20041;-68
2022/06/22 11:33:56;;;;;;;3.60;1.48;;;;;;;26.28;31.79;100677.44;6096648;28;20042;-68
2022/06/22 11:37:04;;;;;;;3.47;1.30;;;;;;;26.55;32.27;100666.69;6092006;28;20424;-68
2022/06/22 11:40:06;;;;;;;3.88;1.45;;;;;;;26.81;33.83;100681.47;6097062;28;20052;-68
2022/06/22 11:43:20;;;;;;;3.65;1.60;;;;;;;27.01;32.24;100671.66;6094324;28;20278;-68
2022/06/22 11:46:20;;;;;;;2.28;1.58;;;;;;;26.50;31.41;100675.59;6092016;28;20037;-66
2022/06/22 11:49:38;;;;;;;3.97;1.65;;;;;;;26.63;30.92;100668.97;6096900;28;20091;-67
2022/06/22 11:52:47;;;;;;;7.18;1.70;;;;;;;27.17;30.47;100676.19;6095939;28;20040;-66
2022/06/22 11:55:45;;;;;;;3.08;1.75;;;;;;;26.37;30.24;100675.97;6096434;28;20083;-66
2022/06/22 11:59:22;;;;;;;3.55;1.42;;;;;;;26.07;32.38;100672.75;6094944;28;20387;-67
2022/06/22 12:02:43;;;;;;;4.25;1.52;;;;;;;26.65;30.51;100661.38;6095595;28;20044;-67
2022/06/22 12:05:47;;;;;;;4.75;1.58;;;;;;;26.78;29.84;100649.31;6096455;28;20033;-67
2022/06/22 12:09:03;;;;;;;1.95;1.45;;;;;;;26.78;30.77;100644.69;6095677;28;20036;-67
2022/06/22 12:12:10;;;;;;;3.00;1.40;;;;;;;26.47;28.13;100642.66;6095585;28;20032;-67
2022/06/22 12:15:09;;;;;;;4.93;1.90;;;;;;;26.60;29.62;100642.28;6098932;28;20033;-67
2022/06/22 12:18:33;;;;;;;2.00;1.48;;;;;;;26.72;29.24;100623.06;6098293;28;20032;-67
2022/06/22 12:21:41;;;;;;;2.13;1.27;;;;;;;26.73;29.62;100613.84;6091408;28;20435;-67
2022/06/22 12:24:40;;;;;;;2.50;1.20;;;;;;;27.20;30.68;100613.03;6098776;28;20065;-67
2022/06/22 12:27:54;;;;;;;2.92;1.45;;;;;;;27.39;28.50;100615.38;6100602;28;20036;-66
2022/06/22 12:30:59;;;;;;;3.95;1.30;;;;;;;26.87;29.34;100605.06;6095060;28;20033;-67
2022/06/22 12:34:13;;;;;;;2.38;1.30;;;;;;;27.32;30.34;100606.59;6094340;28;20488;-67
2022/06/22 12:37:30;;;;;;;3.20;1.33;;;;;;;27.46;28.30;100597.78;6099317;28;20051;-67
2022/06/22 12:40:50;;;;;;;2.83;1.40;;;;;;;26.96;27.72;100591.81;6092898;28;20476;-67
2022/06/22 12:43:58;;;;;;;5.80;1.60;;;;;;;27.47;28.74;100587.69;6097423;28;20033;-67
2022/06/22 12:47:20;;;;;;;3.15;1.30;;;;;;;28.04;26.92;100596.03;6100608;28;20437;-67
2022/06/22 12:50:43;;;;;;;2.30;1.40;;;;;;;28.37;25.45;100586.66;6100597;28;20028;-67
2022/06/22 12:53:49;;;;;;;2.25;1.25;;;;;;;28.37;24.94;100586.66;6100359;28;20033;-67
2022/06/22 12:57:00;;;;;;;2.47;1.02;;;;;;;28.18;25.36;100581.66;6099283;28;20029;-67
2022/06/22 13:00:22;;;;;;;3.03;1.50;;;;;;;28.58;25.28;100578.28;6096745;28;20028;-67
2022/06/22 13:03:23;;;;;;;3.22;1.67;;;;;;;28.43;24.71;100577.44;6093720;28;20037;-67
2022/06/22 13:06:19;;;;;;;3.88;1.13;;;;;;;28.03;24.70;100575.31;6099243;28;20447;-67
2022/06/22 13:09:15;;;;;;;2.20;1.35;;;;;;;28.14;24.91;100577.81;6098888;28;20037;-67
2022/06/22 13:12:16;;;;;;;2.53;1.30;;;;;;;28.61;26.11;100564.13;6099282;28;20033;-67
2022/06/22 13:15:22;;;;;;;3.47;1.40;;;;;;;28.80;27.11;100559.00;6100343;28;20536;-67
2022/06/22 13:18:25;;;;;;;3.67;1.45;;;;;;;28.04;24.70;100555.13;6099179;28;20178;-67
2022/06/22 13:21:37;;;;;;;1.48;1.17;;;;;;;28.03;24.20;100554.31;6099130;28;20033;-67
2022/06/22 13:24:43;;;;;;;2.05;1.35;;;;;;;27.95;24.42;100562.97;6097089;28;20822;-67
2022/06/22 13:27:41;;;;;;;1.60;1.20;;;;;;;28.25;24.38;100554.97;6097999;28;20484;-67
2022/06/22 13:30:45;;;;;;;2.22;1.33;;;;;;;28.79;26.72;100550.00;6099283;28;20114;-68
2022/06/22 13:33:47;;;;;;;3.60;1.27;;;;;;;29.20;25.71;100548.13;6098502;28;20044;-68
2022/06/22 13:36:47;;;;;;;3.50;1.58;;;;;;;29.15;24.82;100542.66;6098168;28;20527;-68
2022/06/22 13:39:59;;;;;;;3.92;1.40;;;;;;;29.51;23.63;100538.06;6097307;28;20115;-68
2022/06/22 13:43:19;;;;;;;3.67;1.23;;;;;;;29.29;23.15;100535.59;6086170;28;20037;-68
2022/06/22 13:46:31;;;;;;;3.20;1.50;;;;;;;29.21;22.87;100527.97;6099162;28;20037;-67
2022/06/22 13:49:38;;;;;;;3.50;1.20;;;;;;;28.51;24.24;100522.34;6099308;28;20056;-67
2022/06/22 13:52:54;;;;;;;2.30;1.20;;;;;;;28.89;25.35;100521.91;6096812;28;20064;-67
2022/06/22 13:56:28;;;;;;;3.38;1.20;;;;;;;29.26;24.67;100519.75;6097976;28;20033;-67
2022/06/22 13:59:49;;;;;;;2.17;1.42;;;;;;;29.13;27.77;100514.00;6098017;28;20380;-68
2022/06/22 14:02:53;;;;;;;2.50;1.60;;;;;;;30.05;23.18;100528.13;6097932;28;20090;-67
2022/06/22 14:05:52;;;;;;;2.00;1.42;;;;;;;29.73;24.64;100524.06;6097101;28;20037;-68
2022/06/22 14:09:00;;;;;;;1.48;1.25;;;;;;;29.45;23.30;100520.84;6097690;28;20044;-67
2022/06/22 14:11:55;;;;;;;2.85;1.40;;;;;;;30.12;22.70;100522.34;6095502;28;20033;-68
2022/06/22 14:15:01;;;;;;;5.43;1.67;;;;;;;30.72;23.55;100512.19;6098622;28;20039;-67
2022/06/22 14:18:05;;;;;;;2.92;1.20;;;;;;;31.10;22.54;100498.53;6097501;28;20404;-68
2022/06/22 14:21:15;;;;;;;3.25;1.60;;;;;;;31.89;22.12;100502.69;6096626;28;20037;-68
2022/06/22 14:24:17;;;;;;;3.30;1.52;;;;;;;31.54;21.74;100509.41;6098188;28;20043;-67
2022/06/22 14:27:48;;;;;;;5.18;1.40;;;;;;;31.36;22.87;100504.63;6098221;28;20510;-68
2022/06/22 14:30:56;;;;;;;3.78;1.17;;;;;;;30.89;22.22;100498.94;6097136;28;20464;-68
2022/06/22 14:34:22;;;;;;;2.33;1.45;;;;;;;31.12;22.06;100504.53;6097314;28;20106;-67
2022/06/22 14:37:41;;;;;;;2.28;1.30;;;;;;;31.99;21.96;100493.56;6096208;28;20085;-68
2022/06/22 14:40:44;;;;;;;3.47;1.30;;;;;;;31.52;22.10;100489.69;6095770;28;20032;-67
2022/06/22 14:43:43;;;;;;;2.55;1.50;;;;;;;32.02;21.50;100482.00;6097860;28;20036;-68
2022/06/22 14:47:04;;;;;;;3.45;1.58;;;;;;;32.10;20.26;100487.66;6092576;28;20060;-67
2022/06/22 14:50:17;;;;;;;3.65;1.55;;;;;;;33.13;20.54;100478.47;6096041;28;20045;-67